ΕΜΥ, Εθνική Μετεωρολογική Υπηρεσία - Δελτία Καιρού, Προγνώσεις

ΑΕΡΟΝΑΥΤΙΛΙΑ

GREEK AIRPORTS CODES

LGTL 221230Z 08005KT 9999 FEW016 BKN020 19/13 Q1016 RMK FEW200=

EUROPEAN AIRPORTS CODES

LFPO 221230Z 12008KT 090V150 CAVOK 12/05 Q0998 NOSIG=